createdAt,value
2018-01-07T00:00:20.226Z,74.05
2018-01-07T00:01:22.681Z,73.35
2018-01-07T00:02:25.146Z,67.57
2018-01-07T00:03:27.614Z,64.75
2018-01-07T00:04:30.092Z,69.68
2018-01-07T00:05:32.574Z,66.00
2018-01-07T00:06:35.053Z,70.50
2018-01-07T00:07:37.553Z,65.97
2018-01-07T00:08:40.066Z,62.22
2018-01-07T00:09:42.533Z,66.55
2018-01-07T00:10:44.994Z,63.75
2018-01-07T00:11:48.073Z,57.85
2018-01-07T00:12:50.557Z,60.22
2018-01-07T00:13:53.032Z,57.75
2018-01-07T00:14:55.507Z,63.70
2018-01-07T00:15:57.967Z,67.97
2018-01-07T00:17:00.444Z,50.67
2018-01-07T00:18:02.925Z,63.45
2018-01-07T00:19:05.411Z,46.10
2018-01-07T00:20:07.873Z,53.20
2018-01-07T00:21:10.384Z,53.78
2018-01-07T00:22:12.860Z,50.85
2018-01-07T00:23:15.322Z,54.92
2018-01-07T00:24:17.799Z,44.78
2018-01-07T00:25:20.264Z,51.80
2018-01-07T00:26:22.744Z,50.67
2018-01-07T00:27:25.210Z,46.05
2018-01-07T00:28:27.670Z,51.60
2018-01-07T00:29:30.148Z,47.45
2018-01-07T00:30:32.609Z,52.67
2018-01-07T00:31:35.070Z,46.28
2018-01-07T00:32:37.534Z,53.42
2018-01-07T00:33:40.006Z,48.83
2018-01-07T00:34:42.482Z,46.25
2018-01-07T00:35:44.964Z,50.90
2018-01-07T00:36:47.558Z,47.17
2018-01-07T00:37:50.050Z,51.53
2018-01-07T00:38:52.512Z,46.17
2018-01-07T00:39:54.974Z,44.75
2018-01-07T00:40:57.439Z,49.58
2018-01-07T00:41:59.903Z,51.75
2018-01-07T00:43:02.369Z,49.20
2018-01-07T00:44:04.853Z,46.85
2018-01-07T00:45:07.315Z,42.83
2018-01-07T00:46:10.053Z,49.88
2018-01-07T00:47:12.519Z,49.88
2018-01-07T00:48:14.997Z,45.90
2018-01-07T00:49:17.494Z,43.67
2018-01-07T00:50:19.969Z,44.35
2018-01-07T00:51:22.438Z,41.85
2018-01-07T00:52:24.897Z,46.50
2018-01-07T00:53:27.371Z,44.45
2018-01-07T00:54:29.838Z,44.70
2018-01-07T00:55:32.303Z,41.92
2018-01-07T00:56:34.767Z,41.22
2018-01-07T00:57:37.326Z,46.70
2018-01-07T00:58:39.810Z,50.05
2018-01-07T00:59:42.270Z,49.67
2018-01-07T01:00:44.735Z,47.83
2018-01-07T01:01:47.219Z,53.05
2018-01-07T01:02:49.691Z,45.17
2018-01-07T01:03:52.150Z,39.28
2018-01-07T01:04:54.633Z,42.20
2018-01-07T01:05:57.114Z,46.30
2018-01-07T01:06:59.580Z,49.47
2018-01-07T01:08:02.102Z,47.85
2018-01-07T01:09:04.580Z,45.63
2018-01-07T01:10:07.062Z,45.75
2018-01-07T01:11:09.543Z,46.33
2018-01-07T01:12:12.026Z,49.38
2018-01-07T01:13:14.486Z,44.90
2018-01-07T01:14:16.947Z,51.85
2018-01-07T01:15:19.424Z,45.92
2018-01-07T01:16:21.885Z,48.83
2018-01-07T01:17:24.380Z,47.45
2018-01-07T01:18:26.884Z,42.03
2018-01-07T01:19:29.350Z,45.50
2018-01-07T01:20:31.849Z,48.25
2018-01-07T01:21:34.324Z,47.33
2018-01-07T01:22:36.820Z,49.45
2018-01-07T01:23:39.334Z,47.45
2018-01-07T01:24:41.796Z,49.60
2018-01-07T01:25:44.254Z,43.97
2018-01-07T01:26:46.719Z,50.00
2018-01-07T01:27:49.231Z,43.15
2018-01-07T01:28:51.742Z,45.75
2018-01-07T01:29:54.215Z,40.35
2018-01-07T01:30:56.754Z,43.55
2018-01-07T01:31:59.229Z,46.67
2018-01-07T01:33:01.710Z,43.38
2018-01-07T01:34:04.178Z,49.70
2018-01-07T01:35:06.655Z,45.50
2018-01-07T01:36:09.148Z,48.45
2018-01-07T01:37:11.610Z,43.28
2018-01-07T01:38:14.223Z,44.38
2018-01-07T01:39:16.792Z,45.67
2018-01-07T01:40:19.466Z,42.15
2018-01-07T01:41:21.942Z,51.58
2018-01-07T01:42:24.406Z,46.75
2018-01-07T01:43:28.472Z,43.97
2018-01-07T01:44:30.933Z,45.70
2018-01-07T01:45:33.469Z,44.25
2018-01-07T01:46:36.068Z,45.50
2018-01-07T01:47:38.869Z,41.95
2018-01-07T01:48:41.419Z,44.55
2018-01-07T01:49:43.901Z,39.63
2018-01-07T01:50:46.376Z,39.30
2018-01-07T01:51:48.848Z,38.33
2018-01-07T01:52:51.306Z,41.03
2018-01-07T01:53:53.843Z,40.30
2018-01-07T01:54:56.363Z,35.85
2018-01-07T01:55:58.841Z,40.40
2018-01-07T01:57:01.310Z,30.42
2018-01-07T01:58:03.789Z,36.85
2018-01-07T01:59:06.266Z,31.95
2018-01-07T02:00:08.774Z,34.78
2018-01-07T02:01:12.498Z,36.47
2018-01-07T02:02:15.024Z,34.65
2018-01-07T02:03:17.496Z,30.90
2018-01-07T02:04:19.979Z,31.17
2018-01-07T02:05:22.436Z,30.88
2018-01-07T02:06:24.917Z,29.80
2018-01-07T02:07:27.671Z,32.22
2018-01-07T02:08:30.225Z,28.17
2018-01-07T02:09:32.694Z,26.08
2018-01-07T02:10:35.188Z,25.62
2018-01-07T02:11:37.800Z,24.58
2018-01-07T02:12:40.396Z,23.17
2018-01-07T02:13:42.873Z,25.92
2018-01-07T02:14:45.488Z,23.15
2018-01-07T02:15:48.133Z,24.35
2018-01-07T02:16:50.874Z,22.13
2018-01-07T02:17:53.419Z,27.92
2018-01-07T02:18:55.879Z,22.27
2018-01-07T02:19:58.360Z,21.10
2018-01-07T02:21:00.840Z,23.95
2018-01-07T02:22:03.302Z,20.62
2018-01-07T02:23:05.780Z,22.02
2018-01-07T02:24:08.272Z,23.02
2018-01-07T02:25:10.752Z,21.75
2018-01-07T02:26:13.214Z,21.67
2018-01-07T02:27:15.692Z,22.25
2018-01-07T02:28:18.168Z,21.85
2018-01-07T02:29:20.643Z,20.35
2018-01-07T02:30:23.114Z,21.87
2018-01-07T02:31:25.610Z,21.40
2018-01-07T02:32:29.113Z,21.87
2018-01-07T02:33:31.602Z,21.25
2018-01-07T02:34:34.067Z,19.12
2018-01-07T02:35:36.540Z,19.35
2018-01-07T02:36:39.019Z,15.07
2018-01-07T02:37:41.522Z,19.85
2018-01-07T02:38:43.978Z,20.15
2018-01-07T02:39:46.469Z,14.45
2018-01-07T02:40:48.939Z,22.58
2018-01-07T02:41:51.403Z,19.23
2018-01-07T02:42:53.862Z,23.62
2018-01-07T02:43:56.318Z,18.50
2018-01-07T02:44:58.862Z,19.48
2018-01-07T02:46:01.330Z,17.70
2018-01-07T02:47:03.810Z,14.70
2018-01-07T02:48:06.267Z,15.40
2018-01-07T02:49:08.783Z,15.50
2018-01-07T02:50:11.264Z,18.98
2018-01-07T02:51:13.748Z,19.08
2018-01-07T02:52:16.220Z,15.55
2018-01-07T02:53:18.698Z,16.33
2018-01-07T02:54:21.171Z,16.90
2018-01-07T02:55:23.632Z,17.35
2018-01-07T02:56:26.113Z,14.00
2018-01-07T02:57:28.570Z,14.10
2018-01-07T02:58:31.045Z,17.23
2018-01-07T02:59:33.521Z,16.12
2018-01-07T03:00:35.974Z,14.93
2018-01-07T03:01:38.436Z,16.52
2018-01-07T03:02:40.910Z,14.57
2018-01-07T03:03:43.376Z,13.43
2018-01-07T03:04:45.830Z,12.65
2018-01-07T03:05:48.313Z,14.65
2018-01-07T03:06:50.774Z,12.63
2018-01-07T03:07:53.244Z,15.20
2018-01-07T03:08:55.875Z,13.93
2018-01-07T03:09:58.369Z,12.00
2018-01-07T03:11:00.840Z,10.18
2018-01-07T03:12:03.310Z,10.48
2018-01-07T03:13:05.777Z,14.87
2018-01-07T03:14:08.248Z,14.27
2018-01-07T03:15:10.720Z,10.75
2018-01-07T03:16:13.203Z,10.70
2018-01-07T03:17:15.847Z,13.10
2018-01-07T03:18:18.367Z,11.85
2018-01-07T03:19:21.665Z,10.18
2018-01-07T03:20:24.127Z,13.27
2018-01-07T03:21:26.629Z,11.85
2018-01-07T03:22:29.110Z,12.15
2018-01-07T03:23:31.572Z,9.60
2018-01-07T03:24:34.048Z,11.45
2018-01-07T03:25:36.522Z,11.18
2018-01-07T03:26:39.030Z,11.77
2018-01-07T03:27:41.477Z,9.55
2018-01-07T03:28:43.948Z,10.30
2018-01-07T03:29:46.419Z,13.95
2018-01-07T03:30:48.892Z,15.65
2018-01-07T03:31:51.379Z,11.80
2018-01-07T03:32:53.838Z,11.38
2018-01-07T03:33:56.308Z,11.32
2018-01-07T03:34:58.776Z,10.63
2018-01-07T03:36:01.232Z,9.27
2018-01-07T03:37:03.734Z,10.27
2018-01-07T03:38:06.215Z,11.60
2018-01-07T03:39:08.669Z,8.60
2018-01-07T03:40:11.136Z,10.10
2018-01-07T03:41:13.590Z,7.75
2018-01-07T03:42:16.069Z,11.05
2018-01-07T03:43:18.528Z,10.45
2018-01-07T03:44:20.986Z,11.23
2018-01-07T03:45:23.462Z,9.10
2018-01-07T03:46:25.962Z,7.43
2018-01-07T03:47:27.728Z,8.10
2018-01-07T03:48:30.177Z,8.82
2018-01-07T03:49:32.641Z,7.47
2018-01-07T03:50:35.104Z,11.68
2018-01-07T03:51:37.564Z,9.10
2018-01-07T03:52:40.056Z,8.93
2018-01-07T03:53:42.530Z,9.25
2018-01-07T03:54:44.999Z,6.87
2018-01-07T03:55:47.454Z,11.75
2018-01-07T03:56:49.919Z,11.90
2018-01-07T03:57:52.394Z,10.73
2018-01-07T03:58:54.856Z,9.80
2018-01-07T03:59:57.311Z,8.68
2018-01-07T04:00:59.762Z,8.48
2018-01-07T04:02:02.237Z,10.23
2018-01-07T04:03:04.724Z,9.05
2018-01-07T04:04:07.196Z,7.32
2018-01-07T04:05:09.650Z,7.37
2018-01-07T04:06:12.124Z,8.38
2018-01-07T04:07:14.601Z,10.10
2018-01-07T04:08:17.090Z,7.82
2018-01-07T04:09:19.567Z,8.35
2018-01-07T04:10:22.022Z,9.02
2018-01-07T04:11:24.515Z,7.30
2018-01-07T04:12:26.970Z,8.35
2018-01-07T04:13:29.471Z,7.95
2018-01-07T04:14:31.926Z,7.55
2018-01-07T04:15:34.396Z,7.75
2018-01-07T04:16:36.854Z,8.48
2018-01-07T04:17:39.310Z,8.10
2018-01-07T04:18:41.780Z,7.20
2018-01-07T04:19:44.233Z,7.07
2018-01-07T04:20:46.684Z,5.90
2018-01-07T04:21:49.152Z,7.97
2018-01-07T04:22:51.606Z,8.23
2018-01-07T04:23:54.084Z,9.07
2018-01-07T04:24:56.534Z,6.57
2018-01-07T04:25:58.998Z,8.93
2018-01-07T04:27:01.473Z,7.30
2018-01-07T04:28:03.942Z,6.37
2018-01-07T04:29:06.394Z,5.75
2018-01-07T04:30:08.875Z,7.72
2018-01-07T04:31:11.334Z,7.40
2018-01-07T04:32:13.818Z,8.38
2018-01-07T04:33:16.288Z,7.53
2018-01-07T04:34:18.740Z,7.15
2018-01-07T04:35:21.190Z,8.10
2018-01-07T04:36:23.659Z,8.80
2018-01-07T04:37:26.115Z,7.22
2018-01-07T04:38:28.584Z,7.32
2018-01-07T04:39:31.038Z,8.00
2018-01-07T04:40:33.494Z,8.88
2018-01-07T04:41:35.984Z,6.62
2018-01-07T04:42:38.442Z,6.55
2018-01-07T04:43:40.922Z,6.25
2018-01-07T04:44:43.395Z,8.18
2018-01-07T04:45:45.865Z,6.90
2018-01-07T04:46:48.325Z,8.50
2018-01-07T04:47:50.774Z,5.68
2018-01-07T04:48:53.396Z,7.70
2018-01-07T04:49:55.863Z,9.23
2018-01-07T04:50:58.323Z,7.28
2018-01-07T04:52:00.774Z,5.20
2018-01-07T04:53:03.238Z,6.57
2018-01-07T04:54:05.752Z,6.35
2018-01-07T04:55:08.202Z,4.85
2018-01-07T04:56:10.666Z,5.28
2018-01-07T04:57:13.162Z,8.50
2018-01-07T04:58:15.688Z,10.55
2018-01-07T04:59:18.177Z,6.28
2018-01-07T05:00:20.675Z,7.10
2018-01-07T05:01:23.252Z,8.85
2018-01-07T05:02:25.760Z,6.05
2018-01-07T05:03:28.228Z,5.95
2018-01-07T05:04:30.700Z,6.55
2018-01-07T05:05:33.165Z,8.00
2018-01-07T05:06:35.681Z,6.45
2018-01-07T05:07:38.152Z,5.22
2018-01-07T05:08:40.680Z,5.87
2018-01-07T05:09:43.174Z,6.95
2018-01-07T05:10:45.769Z,5.60
2018-01-07T05:11:48.236Z,5.60
2018-01-07T05:12:50.686Z,5.75
2018-01-07T05:13:53.148Z,7.28
2018-01-07T05:14:55.634Z,5.60
2018-01-07T05:15:58.104Z,6.22
2018-01-07T05:17:00.576Z,5.72
2018-01-07T05:18:03.034Z,5.50
2018-01-07T05:19:05.587Z,5.97
2018-01-07T05:20:08.071Z,5.72
2018-01-07T05:21:10.554Z,7.03
2018-01-07T05:22:13.032Z,5.60
2018-01-07T05:23:15.482Z,5.80
2018-01-07T05:24:17.938Z,5.68
2018-01-07T05:25:20.417Z,5.82
2018-01-07T05:26:22.887Z,6.05
2018-01-07T05:27:25.348Z,5.62
2018-01-07T05:28:27.820Z,4.57
2018-01-07T05:29:30.288Z,4.55
2018-01-07T05:30:32.763Z,5.55
2018-01-07T05:31:35.240Z,4.65
2018-01-07T05:32:37.710Z,5.35
2018-01-07T05:33:40.162Z,5.43
2018-01-07T05:34:42.614Z,5.10
2018-01-07T05:35:45.100Z,4.70
2018-01-07T05:36:47.578Z,4.87
2018-01-07T05:37:50.045Z,9.18
2018-01-07T05:38:52.494Z,5.85
2018-01-07T05:39:54.961Z,4.72
2018-01-07T05:40:57.438Z,4.60
2018-01-07T05:41:59.924Z,5.25
2018-01-07T05:43:02.381Z,5.25
2018-01-07T05:44:04.848Z,5.05
2018-01-07T05:45:07.300Z,5.10
2018-01-07T05:46:09.778Z,5.20
2018-01-07T05:47:12.252Z,5.68
2018-01-07T05:48:14.705Z,5.03
2018-01-07T05:49:17.169Z,7.05
2018-01-07T05:50:19.637Z,4.82
2018-01-07T05:51:22.123Z,5.70
2018-01-07T05:52:24.593Z,4.68
2018-01-07T05:53:27.046Z,5.15
2018-01-07T05:54:29.489Z,5.65
2018-01-07T05:55:31.960Z,5.10
2018-01-07T05:56:34.454Z,4.85
2018-01-07T05:57:36.907Z,5.00
2018-01-07T05:58:39.372Z,6.07
2018-01-07T05:59:41.823Z,4.80
2018-01-07T06:00:44.274Z,6.03
2018-01-07T06:01:46.774Z,5.53
2018-01-07T06:02:49.235Z,6.12
2018-01-07T06:03:51.687Z,4.93
2018-01-07T06:04:54.154Z,5.05
2018-01-07T06:05:56.645Z,6.07
2018-01-07T06:06:59.117Z,5.03
2018-01-07T06:08:01.574Z,5.43
2018-01-07T06:09:04.044Z,6.15
2018-01-07T06:10:06.510Z,5.10
2018-01-07T06:11:08.979Z,6.20
2018-01-07T06:12:11.454Z,6.07
2018-01-07T06:13:13.916Z,6.55
2018-01-07T06:14:16.385Z,5.40
2018-01-07T06:15:18.836Z,5.60
2018-01-07T06:16:21.297Z,6.05
2018-01-07T06:17:23.770Z,5.82
2018-01-07T06:18:26.226Z,5.47
2018-01-07T06:19:28.678Z,5.47
2018-01-07T06:20:31.168Z,4.90
2018-01-07T06:21:33.643Z,5.40
2018-01-07T06:22:36.146Z,6.60
2018-01-07T06:23:38.614Z,7.45
2018-01-07T06:24:41.070Z,9.50
2018-01-07T06:25:43.540Z,6.20
2018-01-07T06:26:45.996Z,5.12
2018-01-07T06:27:48.506Z,6.75
2018-01-07T06:28:50.981Z,6.65
2018-01-07T06:29:53.448Z,6.12
2018-01-07T06:30:55.911Z,5.90
2018-01-07T06:31:58.426Z,7.25
2018-01-07T06:33:00.955Z,10.00
2018-01-07T06:34:03.406Z,5.90
2018-01-07T06:35:05.876Z,6.18
2018-01-07T06:36:08.358Z,7.00
2018-01-07T06:37:10.849Z,6.47
2018-01-07T06:38:13.320Z,7.15
2018-01-07T06:39:15.788Z,6.82
2018-01-07T06:40:18.262Z,8.00
2018-01-07T06:41:20.726Z,6.28
2018-01-07T06:42:23.196Z,6.57
2018-01-07T06:43:25.688Z,6.70
2018-01-07T06:44:28.218Z,7.75
2018-01-07T06:45:30.656Z,7.03
2018-01-07T06:46:33.124Z,6.90
2018-01-07T06:47:35.574Z,7.53
2018-01-07T06:48:38.068Z,7.00
2018-01-07T06:49:40.533Z,7.47
2018-01-07T06:50:43.005Z,8.45
2018-01-07T06:51:45.480Z,7.47
2018-01-07T06:52:47.954Z,7.12
2018-01-07T06:53:50.444Z,7.40
2018-01-07T06:54:52.909Z,7.07
2018-01-07T06:55:55.380Z,8.00
2018-01-07T06:56:57.830Z,6.20
2018-01-07T06:58:00.286Z,6.72
2018-01-07T06:59:02.776Z,6.65
2018-01-07T07:00:05.228Z,8.50
2018-01-07T07:01:07.701Z,8.13
2018-01-07T07:02:10.177Z,7.75
2018-01-07T07:03:12.649Z,5.62
2018-01-07T07:04:15.140Z,6.70
2018-01-07T07:05:17.594Z,7.10
2018-01-07T07:06:20.068Z,7.32
2018-01-07T07:07:22.523Z,6.15
2018-01-07T07:08:24.994Z,7.10
2018-01-07T07:09:27.519Z,6.75
2018-01-07T07:10:29.978Z,7.15
2018-01-07T07:11:32.435Z,6.80
2018-01-07T07:12:34.890Z,7.37
2018-01-07T07:13:37.350Z,6.30
2018-01-07T07:14:39.821Z,7.82
2018-01-07T07:15:42.274Z,6.40
2018-01-07T07:16:44.746Z,8.35
2018-01-07T07:17:47.198Z,6.70
2018-01-07T07:18:49.651Z,7.30
2018-01-07T07:19:52.116Z,6.60
2018-01-07T07:20:54.591Z,9.00
2018-01-07T07:21:57.112Z,6.85
2018-01-07T07:22:59.588Z,8.13
2018-01-07T07:24:02.044Z,6.65
2018-01-07T07:25:04.506Z,9.02
2018-01-07T07:26:06.968Z,7.35
2018-01-07T07:27:09.422Z,8.70
2018-01-07T07:28:11.873Z,7.60
2018-01-07T07:29:14.334Z,7.93
2018-01-07T07:30:16.812Z,8.20
2018-01-07T07:31:19.280Z,8.10
2018-01-07T07:32:21.734Z,7.45
2018-01-07T07:33:24.194Z,7.15
2018-01-07T07:34:26.664Z,10.93
2018-01-07T07:35:29.128Z,8.43
2018-01-07T07:36:31.588Z,6.85
2018-01-07T07:37:34.061Z,7.75
2018-01-07T07:38:36.532Z,7.80
2018-01-07T07:39:38.986Z,9.38
2018-01-07T07:40:41.451Z,7.40
2018-01-07T07:41:43.924Z,8.48
2018-01-07T07:42:46.386Z,8.25
2018-01-07T07:43:48.912Z,7.93
2018-01-07T07:44:51.382Z,7.47
2018-01-07T07:45:53.869Z,8.73
2018-01-07T07:46:56.322Z,8.40
2018-01-07T07:47:58.789Z,7.87
2018-01-07T07:49:01.259Z,7.50
2018-01-07T07:50:03.714Z,17.90
2018-01-07T07:51:06.188Z,6.57
2018-01-07T07:52:08.659Z,8.27
2018-01-07T07:53:11.127Z,9.20
2018-01-07T07:54:13.597Z,7.85
2018-01-07T07:55:16.056Z,7.85
2018-01-07T07:56:18.511Z,9.40
2018-01-07T07:57:21.083Z,7.55
2018-01-07T07:58:23.548Z,7.18
2018-01-07T07:59:26.013Z,8.07
2018-01-07T08:00:28.471Z,7.03
2018-01-07T08:01:30.958Z,8.35
2018-01-07T08:02:33.441Z,7.20
2018-01-07T08:03:35.914Z,7.43
2018-01-07T08:04:38.366Z,7.00
2018-01-07T08:05:40.837Z,6.75
2018-01-07T08:06:43.299Z,7.60
2018-01-07T08:07:45.769Z,7.75
2018-01-07T08:08:48.322Z,7.20
2018-01-07T08:09:50.778Z,7.12
2018-01-07T08:10:53.230Z,8.00
2018-01-07T08:11:55.697Z,8.23
2018-01-07T08:12:58.178Z,7.85
2018-01-07T08:14:00.640Z,7.62
2018-01-07T08:15:03.102Z,7.18
2018-01-07T08:16:05.573Z,7.87
2018-01-07T08:17:08.041Z,7.65
2018-01-07T08:18:10.497Z,7.90
2018-01-07T08:19:12.973Z,7.43
2018-01-07T08:20:15.448Z,8.00
2018-01-07T08:21:17.920Z,8.23
2018-01-07T08:22:20.384Z,9.27
2018-01-07T08:23:22.846Z,8.45
2018-01-07T08:24:25.302Z,7.72
2018-01-07T08:25:27.793Z,8.00
2018-01-07T08:26:30.246Z,7.12
2018-01-07T08:27:32.719Z,9.07
2018-01-07T08:28:35.189Z,7.30
2018-01-07T08:29:37.666Z,7.45
2018-01-07T08:30:40.137Z,8.98
2018-01-07T08:31:42.596Z,6.97
2018-01-07T08:32:45.068Z,7.20
2018-01-07T08:33:47.540Z,7.93
2018-01-07T08:34:50.027Z,7.05
2018-01-07T08:35:52.533Z,8.20
2018-01-07T08:36:55.000Z,8.07
2018-01-07T08:37:57.468Z,7.65
2018-01-07T08:38:59.940Z,8.50
2018-01-07T08:40:02.441Z,6.95
2018-01-07T08:41:04.921Z,7.62
2018-01-07T08:42:07.391Z,7.53
2018-01-07T08:43:09.939Z,7.37
2018-01-07T08:44:12.423Z,6.47
2018-01-07T08:45:14.881Z,6.65
2018-01-07T08:46:17.348Z,6.12
2018-01-07T08:47:19.874Z,7.30
2018-01-07T08:48:22.352Z,6.32
2018-01-07T08:49:24.802Z,6.70
2018-01-07T08:50:27.273Z,6.80
2018-01-07T08:51:29.740Z,6.00
2018-01-07T08:52:32.198Z,6.47
2018-01-07T08:53:34.688Z,6.82
2018-01-07T08:54:37.138Z,5.90
2018-01-07T08:55:39.594Z,6.53
2018-01-07T08:56:42.105Z,6.30
2018-01-07T08:57:44.555Z,6.90
2018-01-07T08:58:47.007Z,5.85
2018-01-07T08:59:49.458Z,6.78
2018-01-07T09:00:51.925Z,6.50
2018-01-07T09:01:54.380Z,4.95
2018-01-07T09:02:56.860Z,5.30
2018-01-07T09:03:59.316Z,5.82
2018-01-07T09:05:01.765Z,5.62
2018-01-07T09:06:04.238Z,11.88
2018-01-07T09:07:06.720Z,6.12
2018-01-07T09:08:09.171Z,5.60
2018-01-07T09:09:11.622Z,5.55
2018-01-07T09:10:14.092Z,5.07
2018-01-07T09:11:16.558Z,4.72
2018-01-07T09:12:19.025Z,4.32
2018-01-07T09:13:21.488Z,5.25
2018-01-07T09:14:23.938Z,5.53
2018-01-07T09:15:26.400Z,5.85
2018-01-07T09:16:28.868Z,5.20
2018-01-07T09:17:31.328Z,5.05
2018-01-07T09:18:33.791Z,5.80
2018-01-07T09:19:36.272Z,5.55
2018-01-07T09:20:38.721Z,5.15
2018-01-07T09:21:41.189Z,5.32
2018-01-07T09:22:43.660Z,5.45
2018-01-07T09:23:46.119Z,5.75
2018-01-07T09:24:48.579Z,4.43
2018-01-07T09:25:51.040Z,4.90
2018-01-07T09:26:53.500Z,4.40
2018-01-07T09:27:55.974Z,5.22
2018-01-07T09:28:58.436Z,5.37
2018-01-07T09:30:00.905Z,4.15
2018-01-07T09:31:03.369Z,5.00
2018-01-07T09:32:05.840Z,5.30
2018-01-07T09:33:08.305Z,4.80
2018-01-07T09:34:10.769Z,4.60
2018-01-07T09:35:13.232Z,4.93
2018-01-07T09:36:15.696Z,4.70
2018-01-07T09:37:18.165Z,4.37
2018-01-07T09:38:20.644Z,4.47
2018-01-07T09:39:23.116Z,4.62
2018-01-07T09:40:25.582Z,4.85
2018-01-07T09:41:28.038Z,4.53
2018-01-07T09:42:30.498Z,3.78
2018-01-07T09:43:32.959Z,4.68
2018-01-07T09:44:35.410Z,3.90
2018-01-07T09:45:37.872Z,4.22
2018-01-07T09:46:40.336Z,4.00
2018-01-07T09:47:42.787Z,4.15
2018-01-07T09:48:45.234Z,4.65
2018-01-07T09:49:47.700Z,3.83
2018-01-07T09:50:50.164Z,3.05
2018-01-07T09:51:52.630Z,3.75
2018-01-07T09:52:55.121Z,3.78
2018-01-07T09:53:57.898Z,3.87
2018-01-07T09:55:00.374Z,3.78
2018-01-07T09:56:02.827Z,3.65
2018-01-07T09:57:05.297Z,3.47
2018-01-07T09:58:07.760Z,3.60
2018-01-07T09:59:10.292Z,3.30
2018-01-07T10:00:12.747Z,3.12
2018-01-07T10:01:15.216Z,3.80
2018-01-07T10:02:17.685Z,3.65
2018-01-07T10:03:20.146Z,4.00
2018-01-07T10:04:22.624Z,3.55
2018-01-07T10:05:25.093Z,3.50
2018-01-07T10:06:27.553Z,3.55
2018-01-07T10:07:30.021Z,3.12
2018-01-07T10:08:32.551Z,2.97
2018-01-07T10:09:35.012Z,3.92
2018-01-07T10:10:37.481Z,3.37
2018-01-07T10:11:39.944Z,3.83
2018-01-07T10:12:42.408Z,3.20
2018-01-07T10:13:44.862Z,3.20
2018-01-07T10:14:47.326Z,3.47
2018-01-07T10:15:49.794Z,3.30
2018-01-07T10:16:52.242Z,3.08
2018-01-07T10:17:54.698Z,3.15
2018-01-07T10:18:57.173Z,3.17
2018-01-07T10:19:59.634Z,3.55
2018-01-07T10:21:02.118Z,3.85
2018-01-07T10:22:04.588Z,4.00
2018-01-07T10:23:07.071Z,4.00
2018-01-07T10:24:09.543Z,3.35
2018-01-07T10:25:12.327Z,3.70
2018-01-07T10:26:14.794Z,3.45
2018-01-07T10:27:17.264Z,4.28
2018-01-07T10:28:19.813Z,3.55
2018-01-07T10:29:22.284Z,3.25
2018-01-07T10:30:24.762Z,3.40
2018-01-07T10:31:27.228Z,4.10
2018-01-07T10:32:29.692Z,3.20
2018-01-07T10:33:32.157Z,3.85
2018-01-07T10:34:34.655Z,4.20
2018-01-07T10:35:37.111Z,4.20
2018-01-07T10:36:39.570Z,3.90
2018-01-07T10:37:42.024Z,3.40
2018-01-07T10:38:44.480Z,3.33
2018-01-07T10:39:46.953Z,3.72
2018-01-07T10:40:49.410Z,4.00
2018-01-07T10:41:51.878Z,3.33
2018-01-07T10:42:54.339Z,3.55
2018-01-07T10:43:56.804Z,3.22
2018-01-07T10:44:59.265Z,4.18
2018-01-07T10:46:01.727Z,4.03
2018-01-07T10:47:04.204Z,3.47
2018-01-07T10:48:06.668Z,3.80
2018-01-07T10:49:09.146Z,4.00
2018-01-07T10:50:11.627Z,4.20
2018-01-07T10:51:14.226Z,3.45
2018-01-07T10:52:16.742Z,4.03
2018-01-07T10:53:19.219Z,3.78
2018-01-07T10:54:21.678Z,4.53
2018-01-07T10:55:24.130Z,4.00
2018-01-07T10:56:26.630Z,4.10
2018-01-07T10:57:29.101Z,3.90
2018-01-07T10:58:31.567Z,4.25
2018-01-07T10:59:34.040Z,3.90
2018-01-07T11:00:42.053Z,4.32
2018-01-07T11:01:50.162Z,3.53
2018-01-07T11:02:52.624Z,4.05
2018-01-07T11:03:55.898Z,4.32
2018-01-07T11:04:58.364Z,4.43
2018-01-07T11:06:00.824Z,4.00
2018-01-07T11:07:03.278Z,4.10
2018-01-07T11:08:05.745Z,3.97
2018-01-07T11:09:08.258Z,3.60
2018-01-07T11:10:10.726Z,3.55
2018-01-07T11:11:13.177Z,4.05
2018-01-07T11:12:15.631Z,4.07
2018-01-07T11:13:18.101Z,3.65
2018-01-07T11:14:20.568Z,4.65
2018-01-07T11:15:23.030Z,13.15
2018-01-07T11:16:25.484Z,4.18
2018-01-07T11:17:27.934Z,3.90
2018-01-07T11:18:30.470Z,4.25
2018-01-07T11:19:32.940Z,3.85
2018-01-07T11:20:35.399Z,4.00
2018-01-07T11:21:37.853Z,4.30
2018-01-07T11:22:40.326Z,4.37
2018-01-07T11:23:42.802Z,4.45
2018-01-07T11:24:45.253Z,4.70
2018-01-07T11:25:47.720Z,5.12
2018-01-07T11:26:50.233Z,5.10
2018-01-07T11:27:52.705Z,5.30
2018-01-07T11:28:55.158Z,4.60
2018-01-07T11:29:57.642Z,5.18
2018-01-07T11:31:00.384Z,4.95
2018-01-07T11:32:02.841Z,4.32
2018-01-07T11:33:05.313Z,4.40
2018-01-07T11:34:07.792Z,5.90
2018-01-07T11:35:10.266Z,5.15
2018-01-07T11:36:12.745Z,4.90
2018-01-07T11:37:15.206Z,5.32
2018-01-07T11:38:17.693Z,5.05
2018-01-07T11:39:20.152Z,10.52
2018-01-07T11:40:22.628Z,4.57
2018-01-07T11:41:25.095Z,5.00
2018-01-07T11:42:27.562Z,6.35
2018-01-07T11:43:30.874Z,4.70
2018-01-07T11:44:33.326Z,5.60
2018-01-07T11:45:35.792Z,4.85
2018-01-07T11:46:38.250Z,5.35
2018-01-07T11:47:40.738Z,5.12
2018-01-07T11:48:43.213Z,4.57
2018-01-07T11:49:45.736Z,5.40
2018-01-07T11:50:48.195Z,4.40
2018-01-07T11:51:50.650Z,5.68
2018-01-07T11:52:53.102Z,5.47
2018-01-07T11:53:55.564Z,5.22
2018-01-07T11:54:58.232Z,5.43
2018-01-07T11:56:00.720Z,5.62
2018-01-07T11:57:03.175Z,6.15
2018-01-07T11:58:05.993Z,5.95
2018-01-07T11:59:08.464Z,4.90
2018-01-07T12:00:10.922Z,4.90
2018-01-07T12:01:13.386Z,5.75
2018-01-07T12:02:15.853Z,6.03
2018-01-07T12:03:18.313Z,4.90
2018-01-07T12:04:20.793Z,4.90
2018-01-07T12:05:23.251Z,5.78
2018-01-07T12:06:25.717Z,5.50
2018-01-07T12:07:28.200Z,4.87
2018-01-07T12:08:30.899Z,4.90
2018-01-07T12:09:33.407Z,4.50
2018-01-07T12:10:35.917Z,5.50
2018-01-07T12:11:38.476Z,4.93
2018-01-07T12:12:41.034Z,5.35
2018-01-07T12:13:43.500Z,4.70
2018-01-07T12:14:45.992Z,5.57
2018-01-07T12:15:48.452Z,4.90
2018-01-07T12:16:50.939Z,4.53
2018-01-07T12:17:53.408Z,5.53
2018-01-07T12:18:55.885Z,5.22
2018-01-07T12:19:58.404Z,4.70
2018-01-07T12:21:00.908Z,4.75
2018-01-07T12:22:03.385Z,4.62
2018-01-07T12:23:05.842Z,4.60
2018-01-07T12:24:08.323Z,4.70
2018-01-07T12:25:10.814Z,4.95
2018-01-07T12:26:13.284Z,4.40
2018-01-07T12:27:15.755Z,4.93
2018-01-07T12:28:18.224Z,4.53
2018-01-07T12:29:20.680Z,6.50
2018-01-07T12:30:23.177Z,4.78
2018-01-07T12:31:26.636Z,4.55
2018-01-07T12:32:29.278Z,5.15
2018-01-07T12:33:31.790Z,4.65
2018-01-07T12:34:34.272Z,4.55
2018-01-07T12:35:36.767Z,4.35
2018-01-07T12:36:39.311Z,4.90
2018-01-07T12:37:41.844Z,8.93
2018-01-07T12:38:44.332Z,5.07
2018-01-07T12:39:46.789Z,4.93
2018-01-07T12:40:49.284Z,4.37
2018-01-07T12:41:51.734Z,4.12
2018-01-07T12:42:54.948Z,5.28
2018-01-07T12:43:57.435Z,4.75
2018-01-07T12:44:59.946Z,4.90
2018-01-07T12:46:02.435Z,4.20
2018-01-07T12:47:04.941Z,4.20
2018-01-07T12:48:07.404Z,4.37
2018-01-07T12:49:09.918Z,4.60
2018-01-07T12:50:12.380Z,4.70
2018-01-07T12:51:14.904Z,4.55
2018-01-07T12:52:17.372Z,5.00
2018-01-07T12:53:20.314Z,4.50
2018-01-07T12:54:22.771Z,5.40
2018-01-07T12:55:25.866Z,4.82
2018-01-07T12:56:28.456Z,4.15
2018-01-07T12:57:30.947Z,4.70
2018-01-07T12:58:33.565Z,4.43
2018-01-07T12:59:36.144Z,3.87
2018-01-07T13:00:38.632Z,3.90
2018-01-07T13:01:41.162Z,4.05
2018-01-07T13:02:43.635Z,4.93
2018-01-07T13:03:46.106Z,4.57
2018-01-07T13:04:48.563Z,3.90
2018-01-07T13:05:51.014Z,4.57
2018-01-07T13:06:53.523Z,4.75
2018-01-07T13:07:56.053Z,4.50
2018-01-07T13:08:58.528Z,3.53
2018-01-07T13:10:01.554Z,4.95
2018-01-07T13:11:04.027Z,3.65
2018-01-07T13:12:06.546Z,4.28
2018-01-07T13:13:09.023Z,4.43
2018-01-07T13:14:11.528Z,4.78
2018-01-07T13:15:14.003Z,4.18
2018-01-07T13:16:16.479Z,4.03
2018-01-07T13:17:18.988Z,4.15
2018-01-07T13:18:21.515Z,4.50
2018-01-07T13:19:24.011Z,4.43
2018-01-07T13:20:26.497Z,4.00
2018-01-07T13:21:28.965Z,5.15
2018-01-07T13:22:31.479Z,4.45
2018-01-07T13:23:33.949Z,4.40
2018-01-07T13:24:36.506Z,5.00
2018-01-07T13:25:38.969Z,3.95
2018-01-07T13:26:41.464Z,4.00
2018-01-07T13:27:43.941Z,4.30
2018-01-07T13:28:46.464Z,4.75
2018-01-07T13:29:48.938Z,4.28
2018-01-07T13:30:51.412Z,4.20
2018-01-07T13:31:53.866Z,4.50
2018-01-07T13:32:56.368Z,4.22
2018-01-07T13:33:58.841Z,5.32
2018-01-07T13:35:01.350Z,4.10
2018-01-07T13:36:03.788Z,3.97
2018-01-07T13:37:06.249Z,4.40
2018-01-07T13:38:08.727Z,4.35
2018-01-07T13:39:11.194Z,4.30
2018-01-07T13:40:13.646Z,4.57
2018-01-07T13:41:16.128Z,4.35
2018-01-07T13:42:18.601Z,4.53
2018-01-07T13:43:21.085Z,4.85
2018-01-07T13:44:23.569Z,3.80